sensor_id;sensor_type;location;lat;lon;timestamp;P1;durP1;ratioP1;P2;durP2;ratioP2
52124;SDS011;38119;52.710;6.398;2024-02-16T00:01:00;10.85;;;4.55;;
52124;SDS011;38119;52.710;6.398;2024-02-16T00:03:26;12.13;;;4.95;;
52124;SDS011;38119;52.710;6.398;2024-02-16T00:05:53;12.30;;;4.22;;
52124;SDS011;38119;52.710;6.398;2024-02-16T00:08:19;10.93;;;4.38;;
52124;SDS011;38119;52.710;6.398;2024-02-16T00:10:48;10.15;;;4.70;;
52124;SDS011;38119;52.710;6.398;2024-02-16T00:13:14;10.65;;;4.70;;
52124;SDS011;38119;52.710;6.398;2024-02-16T00:15:39;16.50;;;4.60;;
52124;SDS011;38119;52.710;6.398;2024-02-16T00:18:05;12.65;;;4.47;;
52124;SDS011;38119;52.710;6.398;2024-02-16T00:20:32;10.43;;;4.70;;
52124;SDS011;38119;52.710;6.398;2024-02-16T00:22:58;12.82;;;4.78;;
52124;SDS011;38119;52.710;6.398;2024-02-16T00:25:25;15.68;;;4.80;;
52124;SDS011;38119;52.710;6.398;2024-02-16T00:27:51;11.48;;;4.57;;
52124;SDS011;38119;52.710;6.398;2024-02-16T00:30:18;11.20;;;4.45;;
52124;SDS011;38119;52.710;6.398;2024-02-16T00:32:47;12.48;;;4.90;;
52124;SDS011;38119;52.710;6.398;2024-02-16T00:35:14;11.70;;;4.65;;
52124;SDS011;38119;52.710;6.398;2024-02-16T00:37:44;12.73;;;4.65;;
52124;SDS011;38119;52.710;6.398;2024-02-16T00:40:11;12.05;;;4.25;;
52124;SDS011;38119;52.710;6.398;2024-02-16T00:42:37;9.82;;;4.70;;
52124;SDS011;38119;52.710;6.398;2024-02-16T00:45:03;12.15;;;5.00;;
52124;SDS011;38119;52.710;6.398;2024-02-16T00:47:29;9.88;;;4.65;;
52124;SDS011;38119;52.710;6.398;2024-02-16T00:49:55;9.52;;;4.40;;
52124;SDS011;38119;52.710;6.398;2024-02-16T00:52:21;9.68;;;4.55;;
52124;SDS011;38119;52.710;6.398;2024-02-16T00:54:47;9.00;;;4.47;;
52124;SDS011;38119;52.710;6.398;2024-02-16T00:57:14;13.80;;;4.78;;
52124;SDS011;38119;52.710;6.398;2024-02-16T00:59:40;13.07;;;4.38;;
52124;SDS011;38119;52.710;6.398;2024-02-16T01:02:06;9.32;;;4.32;;
52124;SDS011;38119;52.710;6.398;2024-02-16T01:04:32;11.90;;;4.85;;
52124;SDS011;38119;52.710;6.398;2024-02-16T01:06:58;11.98;;;5.38;;
52124;SDS011;38119;52.710;6.398;2024-02-16T01:09:24;13.98;;;4.68;;
52124;SDS011;38119;52.710;6.398;2024-02-16T01:11:50;12.75;;;4.63;;
52124;SDS011;38119;52.710;6.398;2024-02-16T01:14:15;13.60;;;4.32;;
52124;SDS011;38119;52.710;6.398;2024-02-16T01:16:41;10.00;;;4.35;;
52124;SDS011;38119;52.710;6.398;2024-02-16T01:19:07;11.15;;;4.53;;
52124;SDS011;38119;52.710;6.398;2024-02-16T01:21:32;11.73;;;4.63;;
52124;SDS011;38119;52.710;6.398;2024-02-16T01:23:58;10.60;;;4.50;;
52124;SDS011;38119;52.710;6.398;2024-02-16T01:26:26;8.55;;;4.50;;
52124;SDS011;38119;52.710;6.398;2024-02-16T01:28:52;10.77;;;4.05;;
52124;SDS011;38119;52.710;6.398;2024-02-16T01:31:18;11.18;;;4.55;;
52124;SDS011;38119;52.710;6.398;2024-02-16T01:33:43;8.60;;;4.65;;
52124;SDS011;38119;52.710;6.398;2024-02-16T01:36:09;9.15;;;4.40;;
52124;SDS011;38119;52.710;6.398;2024-02-16T01:38:35;9.65;;;4.70;;
52124;SDS011;38119;52.710;6.398;2024-02-16T01:41:01;9.30;;;4.50;;
52124;SDS011;38119;52.710;6.398;2024-02-16T01:43:27;10.82;;;4.82;;
52124;SDS011;38119;52.710;6.398;2024-02-16T01:45:53;11.80;;;4.10;;
52124;SDS011;38119;52.710;6.398;2024-02-16T01:48:19;11.57;;;4.45;;
52124;SDS011;38119;52.710;6.398;2024-02-16T01:50:45;9.88;;;4.03;;
52124;SDS011;38119;52.710;6.398;2024-02-16T01:53:14;11.40;;;4.38;;
52124;SDS011;38119;52.710;6.398;2024-02-16T01:58:09;7.28;;;3.63;;
52124;SDS011;38119;52.710;6.398;2024-02-16T02:00:36;10.00;;;4.18;;
52124;SDS011;38119;52.710;6.398;2024-02-16T02:03:01;9.35;;;4.22;;
52124;SDS011;38119;52.710;6.398;2024-02-16T02:05:28;8.93;;;3.97;;
52124;SDS011;38119;52.710;6.398;2024-02-16T02:07:53;7.63;;;3.70;;
52124;SDS011;38119;52.710;6.398;2024-02-16T02:10:19;8.77;;;3.60;;
52124;SDS011;38119;52.710;6.398;2024-02-16T02:12:45;9.60;;;3.83;;
52124;SDS011;38119;52.710;6.398;2024-02-16T02:15:10;7.13;;;3.58;;
52124;SDS011;38119;52.710;6.398;2024-02-16T02:17:37;9.02;;;3.85;;
52124;SDS011;38119;52.710;6.398;2024-02-16T02:20:03;9.32;;;3.53;;
52124;SDS011;38119;52.710;6.398;2024-02-16T02:22:33;9.40;;;4.22;;
52124;SDS011;38119;52.710;6.398;2024-02-16T02:24:58;8.18;;;3.75;;
52124;SDS011;38119;52.710;6.398;2024-02-16T02:27:24;7.47;;;3.78;;
52124;SDS011;38119;52.710;6.398;2024-02-16T02:29:50;8.65;;;3.80;;
52124;SDS011;38119;52.710;6.398;2024-02-16T02:32:16;7.65;;;3.70;;
52124;SDS011;38119;52.710;6.398;2024-02-16T02:34:42;10.52;;;3.85;;
52124;SDS011;38119;52.710;6.398;2024-02-16T02:37:08;10.18;;;4.05;;
52124;SDS011;38119;52.710;6.398;2024-02-16T02:39:34;10.43;;;3.50;;
52124;SDS011;38119;52.710;6.398;2024-02-16T02:41:59;9.15;;;3.58;;
52124;SDS011;38119;52.710;6.398;2024-02-16T02:44:25;7.80;;;3.65;;
52124;SDS011;38119;52.710;6.398;2024-02-16T02:46:51;9.00;;;3.70;;
52124;SDS011;38119;52.710;6.398;2024-02-16T02:49:18;10.52;;;3.90;;
52124;SDS011;38119;52.710;6.398;2024-02-16T02:51:43;7.00;;;4.13;;
52124;SDS011;38119;52.710;6.398;2024-02-16T02:54:09;10.30;;;4.28;;
52124;SDS011;38119;52.710;6.398;2024-02-16T02:56:35;7.45;;;3.50;;
52124;SDS011;38119;52.710;6.398;2024-02-16T02:59:01;9.98;;;4.18;;
52124;SDS011;38119;52.710;6.398;2024-02-16T03:01:26;10.95;;;3.83;;
52124;SDS011;38119;52.710;6.398;2024-02-16T03:03:52;10.18;;;3.60;;
52124;SDS011;38119;52.710;6.398;2024-02-16T03:06:18;10.27;;;4.47;;
52124;SDS011;38119;52.710;6.398;2024-02-16T03:08:44;8.30;;;3.97;;
52124;SDS011;38119;52.710;6.398;2024-02-16T03:11:10;7.40;;;3.83;;
52124;SDS011;38119;52.710;6.398;2024-02-16T03:13:36;10.25;;;4.05;;
52124;SDS011;38119;52.710;6.398;2024-02-16T03:16:02;9.35;;;3.88;;
52124;SDS011;38119;52.710;6.398;2024-02-16T03:18:29;10.70;;;3.40;;
52124;SDS011;38119;52.710;6.398;2024-02-16T03:20:55;5.85;;;3.25;;
52124;SDS011;38119;52.710;6.398;2024-02-16T03:23:22;11.40;;;3.50;;
52124;SDS011;38119;52.710;6.398;2024-02-16T03:25:47;6.97;;;3.92;;
52124;SDS011;38119;52.710;6.398;2024-02-16T03:28:13;8.32;;;3.35;;
52124;SDS011;38119;52.710;6.398;2024-02-16T03:30:40;9.13;;;4.05;;
52124;SDS011;38119;52.710;6.398;2024-02-16T03:33:07;7.45;;;3.60;;
52124;SDS011;38119;52.710;6.398;2024-02-16T03:35:33;7.13;;;3.63;;
52124;SDS011;38119;52.710;6.398;2024-02-16T03:37:58;5.40;;;3.40;;
52124;SDS011;38119;52.710;6.398;2024-02-16T03:40:24;9.95;;;3.92;;
52124;SDS011;38119;52.710;6.398;2024-02-16T03:42:54;7.97;;;3.67;;
52124;SDS011;38119;52.710;6.398;2024-02-16T03:45:20;11.07;;;4.10;;
52124;SDS011;38119;52.710;6.398;2024-02-16T03:47:46;8.00;;;3.60;;
52124;SDS011;38119;52.710;6.398;2024-02-16T03:50:14;7.57;;;3.80;;
52124;SDS011;38119;52.710;6.398;2024-02-16T03:52:40;6.75;;;3.65;;
52124;SDS011;38119;52.710;6.398;2024-02-16T03:55:06;7.03;;;3.70;;
52124;SDS011;38119;52.710;6.398;2024-02-16T03:57:32;7.60;;;3.67;;
52124;SDS011;38119;52.710;6.398;2024-02-16T03:59:58;10.20;;;3.70;;
52124;SDS011;38119;52.710;6.398;2024-02-16T04:02:24;6.57;;;3.53;;
52124;SDS011;38119;52.710;6.398;2024-02-16T04:04:50;9.05;;;3.58;;
52124;SDS011;38119;52.710;6.398;2024-02-16T04:07:16;9.68;;;3.72;;
52124;SDS011;38119;52.710;6.398;2024-02-16T04:09:42;7.25;;;3.80;;
52124;SDS011;38119;52.710;6.398;2024-02-16T04:12:08;8.20;;;4.03;;
52124;SDS011;38119;52.710;6.398;2024-02-16T04:14:34;10.77;;;3.53;;
52124;SDS011;38119;52.710;6.398;2024-02-16T04:17:00;7.47;;;3.97;;
52124;SDS011;38119;52.710;6.398;2024-02-16T04:19:25;9.30;;;3.83;;
52124;SDS011;38119;52.710;6.398;2024-02-16T04:21:51;11.18;;;4.10;;
52124;SDS011;38119;52.710;6.398;2024-02-16T04:24:17;9.10;;;4.05;;
52124;SDS011;38119;52.710;6.398;2024-02-16T04:26:43;8.00;;;3.80;;
52124;SDS011;38119;52.710;6.398;2024-02-16T04:29:09;7.97;;;3.65;;
52124;SDS011;38119;52.710;6.398;2024-02-16T04:31:34;9.77;;;3.95;;
52124;SDS011;38119;52.710;6.398;2024-02-16T04:34:00;5.97;;;3.40;;
52124;SDS011;38119;52.710;6.398;2024-02-16T04:36:26;8.18;;;3.38;;
52124;SDS011;38119;52.710;6.398;2024-02-16T04:38:52;8.00;;;3.50;;
52124;SDS011;38119;52.710;6.398;2024-02-16T04:41:21;7.55;;;3.78;;
52124;SDS011;38119;52.710;6.398;2024-02-16T04:43:46;10.98;;;4.35;;
52124;SDS011;38119;52.710;6.398;2024-02-16T04:46:15;12.00;;;3.85;;
52124;SDS011;38119;52.710;6.398;2024-02-16T04:48:41;9.48;;;3.53;;
52124;SDS011;38119;52.710;6.398;2024-02-16T04:51:07;8.90;;;3.72;;
52124;SDS011;38119;52.710;6.398;2024-02-16T04:53:32;7.45;;;3.90;;
52124;SDS011;38119;52.710;6.398;2024-02-16T04:55:58;6.68;;;3.80;;
52124;SDS011;38119;52.710;6.398;2024-02-16T04:58:24;8.05;;;3.75;;
52124;SDS011;38119;52.710;6.398;2024-02-16T05:00:49;8.88;;;3.63;;
52124;SDS011;38119;52.710;6.398;2024-02-16T05:03:15;8.93;;;3.55;;
52124;SDS011;38119;52.710;6.398;2024-02-16T05:05:40;10.63;;;4.47;;
52124;SDS011;38119;52.710;6.398;2024-02-16T05:08:06;8.88;;;4.13;;
52124;SDS011;38119;52.710;6.398;2024-02-16T05:10:32;8.15;;;3.83;;
52124;SDS011;38119;52.710;6.398;2024-02-16T05:12:58;5.85;;;3.50;;
52124;SDS011;38119;52.710;6.398;2024-02-16T05:15:23;8.02;;;4.18;;
52124;SDS011;38119;52.710;6.398;2024-02-16T05:17:49;8.65;;;3.80;;
52124;SDS011;38119;52.710;6.398;2024-02-16T05:20:16;11.07;;;3.67;;
52124;SDS011;38119;52.710;6.398;2024-02-16T05:22:42;11.20;;;3.95;;
52124;SDS011;38119;52.710;6.398;2024-02-16T05:25:09;8.70;;;4.15;;
52124;SDS011;38119;52.710;6.398;2024-02-16T05:27:35;7.38;;;3.75;;
52124;SDS011;38119;52.710;6.398;2024-02-16T05:30:03;7.07;;;3.88;;
52124;SDS011;38119;52.710;6.398;2024-02-16T05:32:32;8.23;;;3.97;;
52124;SDS011;38119;52.710;6.398;2024-02-16T05:35:02;6.38;;;3.55;;
52124;SDS011;38119;52.710;6.398;2024-02-16T05:37:36;9.90;;;3.70;;
52124;SDS011;38119;52.710;6.398;2024-02-16T05:40:05;8.88;;;3.80;;
52124;SDS011;38119;52.710;6.398;2024-02-16T05:42:44;8.57;;;4.18;;
52124;SDS011;38119;52.710;6.398;2024-02-16T05:45:14;8.35;;;3.75;;
52124;SDS011;38119;52.710;6.398;2024-02-16T05:47:41;12.45;;;4.20;;
52124;SDS011;38119;52.710;6.398;2024-02-16T05:50:13;6.35;;;3.60;;
52124;SDS011;38119;52.710;6.398;2024-02-16T05:52:43;13.60;;;4.43;;
52124;SDS011;38119;52.710;6.398;2024-02-16T05:55:09;13.23;;;3.70;;
52124;SDS011;38119;52.710;6.398;2024-02-16T05:57:36;8.85;;;3.90;;
52124;SDS011;38119;52.710;6.398;2024-02-16T06:00:06;9.65;;;4.13;;
52124;SDS011;38119;52.710;6.398;2024-02-16T06:02:33;9.55;;;4.07;;
52124;SDS011;38119;52.710;6.398;2024-02-16T06:05:02;9.43;;;4.18;;
52124;SDS011;38119;52.710;6.398;2024-02-16T06:07:29;7.80;;;4.00;;
52124;SDS011;38119;52.710;6.398;2024-02-16T06:09:55;8.32;;;3.60;;
52124;SDS011;38119;52.710;6.398;2024-02-16T06:12:21;7.93;;;3.58;;
52124;SDS011;38119;52.710;6.398;2024-02-16T06:14:47;12.65;;;3.97;;
52124;SDS011;38119;52.710;6.398;2024-02-16T06:17:17;9.82;;;3.90;;
52124;SDS011;38119;52.710;6.398;2024-02-16T06:19:43;8.80;;;4.18;;
52124;SDS011;38119;52.710;6.398;2024-02-16T06:22:09;8.05;;;3.83;;
52124;SDS011;38119;52.710;6.398;2024-02-16T06:24:35;9.55;;;4.20;;
52124;SDS011;38119;52.710;6.398;2024-02-16T06:27:01;8.05;;;4.35;;
52124;SDS011;38119;52.710;6.398;2024-02-16T06:29:28;6.20;;;3.88;;
52124;SDS011;38119;52.710;6.398;2024-02-16T06:31:55;6.75;;;3.80;;
52124;SDS011;38119;52.710;6.398;2024-02-16T06:34:21;9.52;;;3.92;;
52124;SDS011;38119;52.710;6.398;2024-02-16T06:36:46;9.88;;;4.30;;
52124;SDS011;38119;52.710;6.398;2024-02-16T06:39:12;8.95;;;4.03;;
52124;SDS011;38119;52.710;6.398;2024-02-16T06:41:42;7.60;;;4.00;;
52124;SDS011;38119;52.710;6.398;2024-02-16T06:44:11;6.90;;;3.40;;
52124;SDS011;38119;52.710;6.398;2024-02-16T06:46:38;10.98;;;4.32;;
52124;SDS011;38119;52.710;6.398;2024-02-16T06:49:03;10.07;;;4.25;;
52124;SDS011;38119;52.710;6.398;2024-02-16T06:51:29;9.55;;;4.43;;
52124;SDS011;38119;52.710;6.398;2024-02-16T06:53:55;9.05;;;3.85;;
52124;SDS011;38119;52.710;6.398;2024-02-16T06:56:21;7.88;;;4.30;;
52124;SDS011;38119;52.710;6.398;2024-02-16T06:58:46;10.30;;;4.15;;
52124;SDS011;38119;52.710;6.398;2024-02-16T07:01:16;7.53;;;4.88;;
52124;SDS011;38119;52.710;6.398;2024-02-16T07:03:43;8.48;;;4.25;;
52124;SDS011;38119;52.710;6.398;2024-02-16T07:06:09;7.32;;;4.40;;
52124;SDS011;38119;52.710;6.398;2024-02-16T07:08:38;8.35;;;4.00;;
52124;SDS011;38119;52.710;6.398;2024-02-16T07:13:33;10.18;;;4.85;;
52124;SDS011;38119;52.710;6.398;2024-02-16T07:15:59;8.90;;;4.70;;
52124;SDS011;38119;52.710;6.398;2024-02-16T07:18:25;10.68;;;4.55;;
52124;SDS011;38119;52.710;6.398;2024-02-16T07:20:51;6.55;;;4.15;;
52124;SDS011;38119;52.710;6.398;2024-02-16T07:23:16;8.05;;;4.30;;
52124;SDS011;38119;52.710;6.398;2024-02-16T07:25:42;9.27;;;4.45;;
52124;SDS011;38119;52.710;6.398;2024-02-16T07:28:08;10.75;;;4.68;;
52124;SDS011;38119;52.710;6.398;2024-02-16T07:30:34;7.60;;;4.47;;
52124;SDS011;38119;52.710;6.398;2024-02-16T07:33:03;7.93;;;4.45;;
52124;SDS011;38119;52.710;6.398;2024-02-16T07:35:29;9.32;;;4.90;;
52124;SDS011;38119;52.710;6.398;2024-02-16T07:37:55;6.90;;;4.28;;
52124;SDS011;38119;52.710;6.398;2024-02-16T07:40:21;11.55;;;5.00;;
52124;SDS011;38119;52.710;6.398;2024-02-16T07:42:47;8.95;;;4.50;;
52124;SDS011;38119;52.710;6.398;2024-02-16T07:45:12;8.10;;;4.28;;
52124;SDS011;38119;52.710;6.398;2024-02-16T07:47:40;8.50;;;4.50;;
52124;SDS011;38119;52.710;6.398;2024-02-16T07:50:07;9.13;;;4.35;;
52124;SDS011;38119;52.710;6.398;2024-02-16T07:52:33;9.80;;;4.93;;
52124;SDS011;38119;52.710;6.398;2024-02-16T07:54:58;10.55;;;4.30;;
52124;SDS011;38119;52.710;6.398;2024-02-16T07:57:24;13.98;;;4.80;;
52124;SDS011;38119;52.710;6.398;2024-02-16T07:59:50;10.82;;;4.60;;
52124;SDS011;38119;52.710;6.398;2024-02-16T08:02:16;10.10;;;4.82;;
52124;SDS011;38119;52.710;6.398;2024-02-16T08:04:42;9.73;;;4.60;;
52124;SDS011;38119;52.710;6.398;2024-02-16T08:07:14;8.68;;;4.65;;
52124;SDS011;38119;52.710;6.398;2024-02-16T08:09:43;9.93;;;4.68;;
52124;SDS011;38119;52.710;6.398;2024-02-16T08:12:10;9.75;;;4.40;;
52124;SDS011;38119;52.710;6.398;2024-02-16T08:14:37;8.25;;;4.57;;
52124;SDS011;38119;52.710;6.398;2024-02-16T08:17:04;8.95;;;4.80;;
52124;SDS011;38119;52.710;6.398;2024-02-16T08:19:31;7.57;;;4.65;;
52124;SDS011;38119;52.710;6.398;2024-02-16T08:21:59;75.15;;;7.63;;
52124;SDS011;38119;52.710;6.398;2024-02-16T08:24:29;9.40;;;4.63;;
52124;SDS011;38119;52.710;6.398;2024-02-16T08:27:00;10.57;;;4.50;;
52124;SDS011;38119;52.710;6.398;2024-02-16T08:29:26;10.73;;;4.63;;
52124;SDS011;38119;52.710;6.398;2024-02-16T08:31:52;10.02;;;4.43;;
52124;SDS011;38119;52.710;6.398;2024-02-16T08:34:19;6.90;;;4.07;;
52124;SDS011;38119;52.710;6.398;2024-02-16T08:36:45;9.25;;;4.57;;
52124;SDS011;38119;52.710;6.398;2024-02-16T08:39:14;8.52;;;4.63;;
52124;SDS011;38119;52.710;6.398;2024-02-16T08:41:41;8.60;;;4.75;;
52124;SDS011;38119;52.710;6.398;2024-02-16T08:44:07;9.05;;;4.38;;
52124;SDS011;38119;52.710;6.398;2024-02-16T08:46:38;9.27;;;4.80;;
52124;SDS011;38119;52.710;6.398;2024-02-16T08:49:04;8.82;;;4.47;;
52124;SDS011;38119;52.710;6.398;2024-02-16T08:51:33;9.13;;;4.55;;
52124;SDS011;38119;52.710;6.398;2024-02-16T08:53:59;9.07;;;4.68;;
52124;SDS011;38119;52.710;6.398;2024-02-16T08:56:25;9.52;;;4.63;;
52124;SDS011;38119;52.710;6.398;2024-02-16T08:58:51;12.13;;;4.70;;
52124;SDS011;38119;52.710;6.398;2024-02-16T09:01:16;8.05;;;4.60;;
52124;SDS011;38119;52.710;6.398;2024-02-16T09:03:42;10.50;;;4.60;;
52124;SDS011;38119;52.710;6.398;2024-02-16T09:06:08;11.95;;;4.80;;
52124;SDS011;38119;52.710;6.398;2024-02-16T09:08:33;8.45;;;4.90;;
52124;SDS011;38119;52.710;6.398;2024-02-16T09:11:03;11.43;;;4.97;;
52124;SDS011;38119;52.710;6.398;2024-02-16T09:13:30;9.77;;;5.00;;
52124;SDS011;38119;52.710;6.398;2024-02-16T09:15:57;10.82;;;5.50;;
52124;SDS011;38119;52.710;6.398;2024-02-16T09:18:22;12.88;;;4.85;;
52124;SDS011;38119;52.710;6.398;2024-02-16T09:20:48;24.50;;;6.05;;
52124;SDS011;38119;52.710;6.398;2024-02-16T09:23:14;8.27;;;4.72;;
52124;SDS011;38119;52.710;6.398;2024-02-16T09:25:39;13.15;;;5.30;;
52124;SDS011;38119;52.710;6.398;2024-02-16T09:28:06;10.35;;;4.93;;
52124;SDS011;38119;52.710;6.398;2024-02-16T09:30:32;11.48;;;4.72;;
52124;SDS011;38119;52.710;6.398;2024-02-16T09:32:58;8.07;;;4.88;;
52124;SDS011;38119;52.710;6.398;2024-02-16T09:35:23;11.60;;;5.40;;
52124;SDS011;38119;52.710;6.398;2024-02-16T09:37:49;8.88;;;4.90;;
52124;SDS011;38119;52.710;6.398;2024-02-16T09:40:14;8.75;;;5.00;;
52124;SDS011;38119;52.710;6.398;2024-02-16T09:42:40;9.77;;;5.53;;
52124;SDS011;38119;52.710;6.398;2024-02-16T09:45:06;9.50;;;5.10;;
52124;SDS011;38119;52.710;6.398;2024-02-16T09:47:32;12.75;;;5.38;;
52124;SDS011;38119;52.710;6.398;2024-02-16T09:50:00;10.35;;;5.38;;
52124;SDS011;38119;52.710;6.398;2024-02-16T09:52:26;10.88;;;5.50;;
52124;SDS011;38119;52.710;6.398;2024-02-16T09:54:52;10.98;;;5.05;;
52124;SDS011;38119;52.710;6.398;2024-02-16T09:57:17;10.85;;;5.10;;
52124;SDS011;38119;52.710;6.398;2024-02-16T09:59:43;10.15;;;5.07;;
52124;SDS011;38119;52.710;6.398;2024-02-16T10:02:09;10.05;;;5.28;;
52124;SDS011;38119;52.710;6.398;2024-02-16T10:04:35;9.23;;;5.53;;
52124;SDS011;38119;52.710;6.398;2024-02-16T10:07:01;10.57;;;5.60;;
52124;SDS011;38119;52.710;6.398;2024-02-16T10:09:27;10.80;;;5.38;;
52124;SDS011;38119;52.710;6.398;2024-02-16T10:11:57;10.50;;;5.82;;
52124;SDS011;38119;52.710;6.398;2024-02-16T10:14:23;12.35;;;5.90;;
52124;SDS011;38119;52.710;6.398;2024-02-16T10:17:03;12.88;;;5.65;;
52124;SDS011;38119;52.710;6.398;2024-02-16T10:19:31;11.98;;;5.65;;
52124;SDS011;38119;52.710;6.398;2024-02-16T10:22:08;9.85;;;5.93;;
52124;SDS011;38119;52.710;6.398;2024-02-16T10:24:34;11.32;;;6.07;;
52124;SDS011;38119;52.710;6.398;2024-02-16T10:27:00;11.30;;;6.13;;
52124;SDS011;38119;52.710;6.398;2024-02-16T10:29:26;9.55;;;6.00;;
52124;SDS011;38119;52.710;6.398;2024-02-16T10:31:52;11.25;;;5.90;;
52124;SDS011;38119;52.710;6.398;2024-02-16T10:34:18;11.25;;;6.13;;
52124;SDS011;38119;52.710;6.398;2024-02-16T10:36:45;11.70;;;6.07;;
52124;SDS011;38119;52.710;6.398;2024-02-16T10:39:11;12.55;;;6.90;;
52124;SDS011;38119;52.710;6.398;2024-02-16T10:41:40;13.25;;;6.90;;
52124;SDS011;38119;52.710;6.398;2024-02-16T10:44:06;10.88;;;6.85;;
52124;SDS011;38119;52.710;6.398;2024-02-16T10:46:32;13.48;;;7.22;;
52124;SDS011;38119;52.710;6.398;2024-02-16T10:48:59;11.55;;;6.93;;
52124;SDS011;38119;52.710;6.398;2024-02-16T10:51:28;9.55;;;6.30;;
52124;SDS011;38119;52.710;6.398;2024-02-16T10:54:07;9.43;;;6.32;;
52124;SDS011;38119;52.710;6.398;2024-02-16T10:56:38;9.90;;;6.60;;
52124;SDS011;38119;52.710;6.398;2024-02-16T10:59:06;14.40;;;7.45;;
52124;SDS011;38119;52.710;6.398;2024-02-16T11:01:40;12.85;;;6.82;;
52124;SDS011;38119;52.710;6.398;2024-02-16T11:04:07;13.13;;;6.85;;
52124;SDS011;38119;52.710;6.398;2024-02-16T11:06:53;12.52;;;7.30;;
52124;SDS011;38119;52.710;6.398;2024-02-16T11:09:38;11.23;;;7.20;;
52124;SDS011;38119;52.710;6.398;2024-02-16T11:12:05;14.98;;;7.30;;
52124;SDS011;38119;52.710;6.398;2024-02-16T11:14:41;10.90;;;7.35;;
52124;SDS011;38119;52.710;6.398;2024-02-16T11:17:11;14.70;;;7.75;;
52124;SDS011;38119;52.710;6.398;2024-02-16T11:19:44;11.82;;;8.18;;
52124;SDS011;38119;52.710;6.398;2024-02-16T11:22:14;11.98;;;7.30;;
52124;SDS011;38119;52.710;6.398;2024-02-16T11:24:43;12.97;;;8.07;;
52124;SDS011;38119;52.710;6.398;2024-02-16T11:27:10;12.50;;;8.23;;
52124;SDS011;38119;52.710;6.398;2024-02-16T11:29:37;12.10;;;8.35;;
52124;SDS011;38119;52.710;6.398;2024-02-16T11:32:04;17.30;;;8.77;;
52124;SDS011;38119;52.710;6.398;2024-02-16T11:34:30;13.85;;;9.32;;
52124;SDS011;38119;52.710;6.398;2024-02-16T11:36:59;15.60;;;9.27;;
52124;SDS011;38119;52.710;6.398;2024-02-16T11:39:26;17.90;;;10.13;;
52124;SDS011;38119;52.710;6.398;2024-02-16T11:41:58;17.60;;;10.30;;
52124;SDS011;38119;52.710;6.398;2024-02-16T11:44:29;15.60;;;10.70;;
52124;SDS011;38119;52.710;6.398;2024-02-16T11:46:59;18.20;;;10.20;;
52124;SDS011;38119;52.710;6.398;2024-02-16T11:49:25;18.27;;;11.32;;
52124;SDS011;38119;52.710;6.398;2024-02-16T11:51:51;18.05;;;11.90;;
52124;SDS011;38119;52.710;6.398;2024-02-16T11:54:17;20.42;;;13.23;;
52124;SDS011;38119;52.710;6.398;2024-02-16T11:56:44;24.02;;;13.80;;
52124;SDS011;38119;52.710;6.398;2024-02-16T11:59:13;29.33;;;15.40;;
52124;SDS011;38119;52.710;6.398;2024-02-16T12:04:20;24.15;;;14.75;;
52124;SDS011;38119;52.710;6.398;2024-02-16T12:06:55;25.40;;;15.50;;
52124;SDS011;38119;52.710;6.398;2024-02-16T12:09:22;24.52;;;16.52;;
52124;SDS011;38119;52.710;6.398;2024-02-16T12:11:49;28.20;;;15.70;;
52124;SDS011;38119;52.710;6.398;2024-02-16T12:14:18;24.15;;;13.80;;
52124;SDS011;38119;52.710;6.398;2024-02-16T12:16:49;25.27;;;14.52;;
52124;SDS011;38119;52.710;6.398;2024-02-16T12:19:21;25.92;;;13.80;;
52124;SDS011;38119;52.710;6.398;2024-02-16T12:21:56;30.60;;;15.88;;
52124;SDS011;38119;52.710;6.398;2024-02-16T12:24:22;26.95;;;13.93;;
52124;SDS011;38119;52.710;6.398;2024-02-16T12:26:48;25.58;;;13.95;;
52124;SDS011;38119;52.710;6.398;2024-02-16T12:29:14;23.33;;;12.82;;
52124;SDS011;38119;52.710;6.398;2024-02-16T12:31:44;22.13;;;11.85;;
52124;SDS011;38119;52.710;6.398;2024-02-16T12:34:13;18.35;;;11.05;;
52124;SDS011;38119;52.710;6.398;2024-02-16T12:36:39;17.65;;;9.90;;
52124;SDS011;38119;52.710;6.398;2024-02-16T12:39:06;15.18;;;9.65;;
52124;SDS011;38119;52.710;6.398;2024-02-16T12:41:34;19.25;;;10.35;;
52124;SDS011;38119;52.710;6.398;2024-02-16T12:44:01;18.20;;;9.55;;
52124;SDS011;38119;52.710;6.398;2024-02-16T12:46:27;18.40;;;9.60;;
52124;SDS011;38119;52.710;6.398;2024-02-16T12:48:55;18.83;;;9.32;;
52124;SDS011;38119;52.710;6.398;2024-02-16T12:51:21;17.85;;;8.48;;
52124;SDS011;38119;52.710;6.398;2024-02-16T12:53:46;15.95;;;9.30;;
52124;SDS011;38119;52.710;6.398;2024-02-16T12:56:13;17.42;;;9.55;;
52124;SDS011;38119;52.710;6.398;2024-02-16T12:58:39;19.08;;;9.10;;
52124;SDS011;38119;52.710;6.398;2024-02-16T13:01:05;14.57;;;8.95;;
52124;SDS011;38119;52.710;6.398;2024-02-16T13:03:35;18.70;;;9.60;;
52124;SDS011;38119;52.710;6.398;2024-02-16T13:06:01;17.52;;;9.15;;
52124;SDS011;38119;52.710;6.398;2024-02-16T13:08:27;16.27;;;8.23;;
52124;SDS011;38119;52.710;6.398;2024-02-16T13:10:54;14.75;;;7.78;;
52124;SDS011;38119;52.710;6.398;2024-02-16T13:13:20;12.77;;;8.13;;
52124;SDS011;38119;52.710;6.398;2024-02-16T13:15:46;11.85;;;7.05;;
52124;SDS011;38119;52.710;6.398;2024-02-16T13:18:12;15.00;;;7.82;;
52124;SDS011;38119;52.710;6.398;2024-02-16T13:20:38;9.93;;;6.20;;
52124;SDS011;38119;52.710;6.398;2024-02-16T13:23:04;9.73;;;6.05;;
52124;SDS011;38119;52.710;6.398;2024-02-16T13:25:30;9.60;;;5.90;;
52124;SDS011;38119;52.710;6.398;2024-02-16T13:27:55;10.43;;;5.50;;
52124;SDS011;38119;52.710;6.398;2024-02-16T13:30:21;9.82;;;5.78;;
52124;SDS011;38119;52.710;6.398;2024-02-16T13:32:47;10.70;;;5.32;;
52124;SDS011;38119;52.710;6.398;2024-02-16T13:35:13;8.75;;;5.25;;
52124;SDS011;38119;52.710;6.398;2024-02-16T13:37:39;8.80;;;5.25;;
52124;SDS011;38119;52.710;6.398;2024-02-16T13:40:06;10.60;;;5.60;;
52124;SDS011;38119;52.710;6.398;2024-02-16T13:42:35;8.30;;;5.15;;
52124;SDS011;38119;52.710;6.398;2024-02-16T13:45:02;8.35;;;5.15;;
52124;SDS011;38119;52.710;6.398;2024-02-16T13:47:27;8.18;;;5.03;;
52124;SDS011;38119;52.710;6.398;2024-02-16T13:49:53;8.27;;;5.03;;
52124;SDS011;38119;52.710;6.398;2024-02-16T13:52:21;8.23;;;5.03;;
52124;SDS011;38119;52.710;6.398;2024-02-16T13:54:47;10.38;;;5.22;;
52124;SDS011;38119;52.710;6.398;2024-02-16T13:57:13;8.88;;;4.90;;
52124;SDS011;38119;52.710;6.398;2024-02-16T13:59:39;7.10;;;5.13;;
52124;SDS011;38119;52.710;6.398;2024-02-16T14:02:04;7.63;;;4.68;;
52124;SDS011;38119;52.710;6.398;2024-02-16T14:04:30;9.45;;;5.00;;
52124;SDS011;38119;52.710;6.398;2024-02-16T14:06:55;9.35;;;5.22;;
52124;SDS011;38119;52.710;6.398;2024-02-16T14:09:22;7.50;;;4.97;;
52124;SDS011;38119;52.710;6.398;2024-02-16T14:11:49;6.47;;;4.30;;
52124;SDS011;38119;52.710;6.398;2024-02-16T14:14:14;7.35;;;4.50;;
52124;SDS011;38119;52.710;6.398;2024-02-16T14:16:40;6.20;;;3.85;;
52124;SDS011;38119;52.710;6.398;2024-02-16T14:19:06;6.30;;;4.05;;
52124;SDS011;38119;52.710;6.398;2024-02-16T14:21:32;7.72;;;3.88;;
52124;SDS011;38119;52.710;6.398;2024-02-16T14:23:58;6.93;;;4.13;;
52124;SDS011;38119;52.710;6.398;2024-02-16T14:26:23;6.03;;;3.70;;
52124;SDS011;38119;52.710;6.398;2024-02-16T14:28:49;4.57;;;3.10;;
52124;SDS011;38119;52.710;6.398;2024-02-16T14:31:15;6.65;;;3.20;;
52124;SDS011;38119;52.710;6.398;2024-02-16T14:33:42;5.68;;;3.30;;
52124;SDS011;38119;52.710;6.398;2024-02-16T14:36:08;7.93;;;3.67;;
52124;SDS011;38119;52.710;6.398;2024-02-16T14:38:34;6.75;;;3.65;;
52124;SDS011;38119;52.710;6.398;2024-02-16T14:41:00;6.50;;;3.80;;
52124;SDS011;38119;52.710;6.398;2024-02-16T14:43:30;5.90;;;3.58;;
52124;SDS011;38119;52.710;6.398;2024-02-16T14:45:57;5.85;;;3.30;;